Time;durP1;ratioP1;P1;durP2;ratioP2;P2;SDS_P1;SDS_P2;PMS_P1;PMS_P2;Temp;Humidity;BMP_temperature;BMP_pressure;BME280_temperature;BME280_humidity;BME280_pressure;Samples;Min_cycle;Max_cycle;Signal;HPM_P1;HPM_P2
2022/05/05 00:01:34;;;;;;;5.43;4.28;;;10.00;99.90;;;;;;5052599;28;20082;-84
2022/05/05 00:04:00;;;;;;;7.88;4.65;;;10.00;99.90;;;;;;5066213;28;20032;-84
2022/05/05 00:06:29;;;;;;;7.88;5.10;;;10.00;99.90;;;;;;5052717;28;20039;-85
2022/05/05 00:08:55;;;;;;;5.72;5.03;;;10.00;99.90;;;;;;5036905;28;20028;-85
2022/05/05 00:14:24;;;;;;;6.03;4.40;;;9.90;99.90;;;;;;5069849;28;20044;-84
2022/05/05 00:16:51;;;;;;;7.85;5.55;;;9.80;99.90;;;;;;5056130;28;20044;-85
2022/05/05 00:19:17;;;;;;;5.85;5.00;;;9.80;99.90;;;;;;5046635;28;20028;-85
2022/05/05 00:21:43;;;;;;;9.05;5.28;;;9.80;99.90;;;;;;5058926;28;20153;-87
2022/05/05 00:24:09;;;;;;;5.60;4.85;;;9.70;99.90;;;;;;5022092;28;20059;-85
2022/05/05 00:26:35;;;;;;;6.18;4.47;;;9.80;99.90;;;;;;5055380;28;20043;-85
2022/05/05 00:29:00;;;;;;;6.25;4.63;;;9.80;99.90;;;;;;5069107;28;20029;-84
2022/05/05 00:31:26;;;;;;;5.53;4.53;;;9.80;99.90;;;;;;5053235;28;20064;-85
2022/05/05 00:33:52;;;;;;;5.07;4.20;;;9.80;99.90;;;;;;5069705;28;20407;-85
2022/05/05 00:36:18;;;;;;;5.88;4.30;;;9.80;99.90;;;;;;5066190;28;20047;-86
2022/05/05 00:38:43;;;;;;;5.97;4.65;;;9.80;99.90;;;;;;5052420;28;20119;-85
2022/05/05 00:41:09;;;;;;;6.72;4.35;;;9.80;99.90;;;;;;5036729;28;20025;-85
2022/05/05 00:43:35;;;;;;;5.13;4.15;;;9.80;99.90;;;;;;5052239;28;20028;-85
2022/05/05 00:46:04;;;;;;;5.15;4.00;;;9.80;99.90;;;;;;5052317;28;20029;-84
2022/05/05 00:48:31;;;;;;;5.18;4.10;;;9.80;99.90;;;;;;5052237;28;20024;-86
2022/05/05 00:50:58;;;;;;;9.07;5.18;;;9.80;99.90;;;;;;5070706;28;20529;-86
2022/05/05 00:53:24;;;;;;;10.25;5.18;;;9.80;99.90;;;;;;5089223;28;20039;-85
2022/05/05 00:55:59;;;;;;;14.68;5.68;;;9.80;99.90;;;;;;5072402;28;20077;-85
2022/05/05 00:58:27;;;;;;;9.38;5.72;;;9.90;99.90;;;;;;5054284;28;20493;-85
2022/05/05 01:00:54;;;;;;;9.65;5.93;;;9.80;99.90;;;;;;5088241;28;20062;-87
2022/05/05 01:03:21;;;;;;;7.70;5.43;;;9.80;99.90;;;;;;5052701;28;20074;-84
2022/05/05 01:05:47;;;;;;;14.70;7.57;;;9.90;99.90;;;;;;5052196;28;20025;-86
2022/05/05 01:08:13;;;;;;;12.05;7.43;;;9.90;99.90;;;;;;5065613;28;20035;-85
2022/05/05 01:10:39;;;;;;;10.57;7.70;;;9.90;99.90;;;;;;5044142;28;20046;-87
2022/05/05 01:13:04;;;;;;;13.65;8.20;;;9.90;99.90;;;;;;5055699;28;20039;-84
2022/05/05 01:15:32;;;;;;;12.40;7.55;;;10.00;99.90;;;;;;5026868;28;20039;-84
2022/05/05 01:17:57;;;;;;;13.30;6.82;;;9.90;99.90;;;;;;5052412;28;20025;-85
2022/05/05 01:20:23;;;;;;;14.10;8.20;;;10.00;99.90;;;;;;5035780;28;20400;-87
2022/05/05 01:22:52;;;;;;;6.70;4.90;;;10.00;99.90;;;;;;5055730;28;20031;-85
2022/05/05 01:28:13;;;;;;;5.65;4.50;;;10.10;99.90;;;;;;5088687;28;20032;-85
2022/05/05 01:30:45;;;;;;;7.47;4.78;;;10.10;99.90;;;;;;5088982;28;20691;-85
2022/05/05 01:33:19;;;;;;;9.30;5.78;;;10.10;99.90;;;;;;5072452;28;20102;-84
2022/05/05 01:35:47;;;;;;;6.68;4.80;;;10.20;99.90;;;;;;5071860;28;20066;-85
2022/05/05 01:38:15;;;;;;;8.48;4.93;;;10.10;99.90;;;;;;5036721;28;20029;-85
2022/05/05 01:40:41;;;;;;;7.72;5.03;;;10.10;99.90;;;;;;5066895;28;20028;-85
2022/05/05 01:43:07;;;;;;;8.10;4.93;;;10.20;99.90;;;;;;5072047;28;20020;-85
2022/05/05 01:45:34;;;;;;;8.60;5.82;;;10.10;99.90;;;;;;5034321;28;20241;-84
2022/05/05 01:48:00;;;;;;;9.60;5.93;;;10.20;99.90;;;;;;5076789;28;20503;-88
2022/05/05 01:50:26;;;;;;;6.47;4.72;;;10.20;99.90;;;;;;5055373;28;20074;-84
2022/05/05 01:52:52;;;;;;;6.45;4.80;;;10.20;99.90;;;;;;5090312;28;20113;-84
2022/05/05 01:55:19;;;;;;;9.88;5.22;;;10.20;99.90;;;;;;5055306;28;20036;-90
2022/05/05 01:57:45;;;;;;;9.00;5.55;;;10.20;99.90;;;;;;5076311;28;20032;-85
2022/05/05 02:00:11;;;;;;;10.07;6.30;;;10.20;99.90;;;;;;5064606;28;20031;-85
2022/05/05 02:02:43;;;;;;;9.15;5.88;;;10.20;99.90;;;;;;5068772;28;20076;-86
2022/05/05 02:05:10;;;;;;;11.75;6.13;;;10.20;99.90;;;;;;5060827;28;20085;-85
2022/05/05 02:07:37;;;;;;;10.20;6.43;;;10.20;99.90;;;;;;5091797;28;20387;-84
2022/05/05 02:10:04;;;;;;;9.27;6.22;;;10.20;99.90;;;;;;5071386;28;20036;-85
2022/05/05 02:12:35;;;;;;;8.77;6.43;;;10.20;99.90;;;;;;5047883;28;20044;-85
2022/05/05 02:15:03;;;;;;;9.88;6.38;;;10.20;99.90;;;;;;5055374;28;20031;-89
2022/05/05 02:17:29;;;;;;;9.02;6.15;;;10.20;99.90;;;;;;5059384;28;20035;-85
2022/05/05 02:19:54;;;;;;;10.00;6.45;;;10.20;99.90;;;;;;5036811;28;20037;-84
2022/05/05 02:22:20;;;;;;;12.70;6.78;;;10.30;99.90;;;;;;5022445;28;20032;-85
2022/05/05 02:24:46;;;;;;;9.10;5.78;;;10.30;99.90;;;;;;5071880;28;20036;-85
2022/05/05 02:27:11;;;;;;;10.13;5.97;;;10.30;99.90;;;;;;5021265;28;20037;-85
2022/05/05 02:29:37;;;;;;;10.70;6.97;;;10.30;99.90;;;;;;5056970;28;20510;-83
2022/05/05 02:32:03;;;;;;;11.77;6.80;;;10.30;99.90;;;;;;5058304;28;20036;-85
2022/05/05 02:34:29;;;;;;;11.35;6.72;;;10.30;99.90;;;;;;5074884;28;20092;-85
2022/05/05 02:39:38;;;;;;;12.35;7.00;;;10.30;99.90;;;;;;5043999;28;20372;-85
2022/05/05 02:42:05;;;;;;;12.65;7.35;;;10.30;99.90;;;;;;5063422;28;20032;-84
2022/05/05 02:44:31;;;;;;;11.82;7.32;;;10.30;99.90;;;;;;5054826;28;20037;-85
2022/05/05 02:46:58;;;;;;;10.43;7.20;;;10.30;99.90;;;;;;5037844;28;20039;-84
2022/05/05 02:49:27;;;;;;;12.88;7.32;;;10.30;99.90;;;;;;5054485;28;20033;-85
2022/05/05 02:51:53;;;;;;;11.90;7.68;;;10.20;99.90;;;;;;5038985;28;20108;-85
2022/05/05 02:57:03;;;;;;;11.27;7.20;;;10.30;99.90;;;;;;5076972;28;20486;-85
2022/05/05 02:59:29;;;;;;;14.23;7.70;;;10.20;99.90;;;;;;5055729;28;20032;-85
2022/05/05 03:01:55;;;;;;;12.07;8.15;;;10.20;99.90;;;;;;5073796;28;20028;-85
2022/05/05 03:04:20;;;;;;;13.40;8.75;;;10.20;99.90;;;;;;5055133;28;20484;-85
2022/05/05 03:06:46;;;;;;;11.52;7.45;;;10.20;99.90;;;;;;5045489;28;20790;-85
2022/05/05 03:09:11;;;;;;;11.50;7.55;;;10.20;99.90;;;;;;5037902;28;20700;-84
2022/05/05 03:11:37;;;;;;;11.00;6.78;;;10.20;99.90;;;;;;5056645;28;20073;-84
2022/05/05 03:14:03;;;;;;;14.48;8.30;;;10.20;99.90;;;;;;5051130;28;20081;-87
2022/05/05 03:16:28;;;;;;;9.80;7.53;;;10.20;99.90;;;;;;5073723;28;20527;-84
2022/05/05 03:18:54;;;;;;;10.30;7.65;;;10.30;99.90;;;;;;5070396;28;20391;-85
2022/05/05 03:21:20;;;;;;;13.23;8.70;;;10.20;99.90;;;;;;5037737;28;20453;-85
2022/05/05 03:23:45;;;;;;;11.73;8.07;;;10.20;99.90;;;;;;5057534;28;20079;-86
2022/05/05 03:26:12;;;;;;;8.82;6.85;;;10.10;99.90;;;;;;5040468;28;20421;-85
2022/05/05 03:28:38;;;;;;;12.40;7.60;;;10.10;99.90;;;;;;5073893;28;20058;-85
2022/05/05 03:31:05;;;;;;;10.85;7.97;;;10.10;99.90;;;;;;5049466;28;20499;-86
2022/05/05 03:33:32;;;;;;;11.40;8.68;;;10.20;99.90;;;;;;5057867;28;20867;-85
2022/05/05 03:35:58;;;;;;;11.63;8.60;;;10.10;99.90;;;;;;5039061;28;20032;-86
2022/05/05 03:38:24;;;;;;;12.82;9.00;;;10.10;99.90;;;;;;5076593;28;20040;-88
2022/05/05 03:40:50;;;;;;;13.10;8.73;;;10.10;99.90;;;;;;5058799;28;20037;-85
2022/05/05 03:43:17;;;;;;;18.55;8.90;;;10.10;99.90;;;;;;5065353;28;20490;-85
2022/05/05 03:45:42;;;;;;;14.05;10.02;;;10.10;99.90;;;;;;5090327;28;20024;-84
2022/05/05 03:48:09;;;;;;;10.23;8.05;;;10.10;99.90;;;;;;5056842;28;20036;-85
2022/05/05 03:50:35;;;;;;;12.68;8.48;;;10.10;99.90;;;;;;5085159;28;20032;-84
2022/05/05 03:53:00;;;;;;;11.82;7.90;;;10.10;99.90;;;;;;5053645;28;20479;-85
2022/05/05 03:55:28;;;;;;;8.63;6.55;;;10.00;99.90;;;;;;5052990;28;20043;-85
2022/05/05 03:57:54;;;;;;;10.43;7.18;;;10.10;99.90;;;;;;5052800;28;20028;-84
2022/05/05 04:00:21;;;;;;;8.65;6.05;;;10.10;99.90;;;;;;5053729;28;20487;-85
2022/05/05 04:03:32;;;;;;;9.02;5.63;;;10.10;99.90;;;;;;5065813;28;20070;-85
2022/05/05 04:05:33;;;;;;;10.52;6.35;;;10.10;99.90;;;;;;5082706;28;20068;-85
2022/05/05 04:08:01;;;;;;;11.15;7.65;;;10.20;99.90;;;;;;5073802;28;20074;-86
2022/05/05 04:10:26;;;;;;;11.18;8.10;;;10.20;99.90;;;;;;5036776;28;20047;-85
2022/05/05 04:12:53;;;;;;;12.23;8.32;;;10.20;99.90;;;;;;5073394;28;20032;-85
2022/05/05 04:15:19;;;;;;;11.55;7.30;;;10.20;99.90;;;;;;5073011;28;20040;-86
2022/05/05 04:17:44;;;;;;;10.90;7.40;;;10.30;99.90;;;;;;5050331;28;20044;-85
2022/05/05 04:20:11;;;;;;;14.57;8.18;;;10.30;99.90;;;;;;5053529;28;20082;-85
2022/05/05 04:22:37;;;;;;;14.23;8.82;;;10.30;99.90;;;;;;5071842;28;20028;-86
2022/05/05 04:25:04;;;;;;;13.40;8.95;;;10.30;99.90;;;;;;5036767;28;20040;-87
2022/05/05 04:27:30;;;;;;;10.32;7.78;;;10.30;99.90;;;;;;5069378;28;20085;-85
2022/05/05 04:29:55;;;;;;;12.65;7.85;;;10.30;99.90;;;;;;5055101;28;20040;-88
2022/05/05 04:32:21;;;;;;;11.18;8.00;;;10.40;99.90;;;;;;5053494;28;20039;-85
2022/05/05 04:34:47;;;;;;;11.35;8.02;;;10.40;99.90;;;;;;5020183;28;20535;-85
2022/05/05 04:37:13;;;;;;;11.63;8.13;;;10.50;99.90;;;;;;5059561;28;20029;-85
2022/05/05 04:39:40;;;;;;;13.18;8.80;;;10.60;99.90;;;;;;5035966;28;20028;-85
2022/05/05 04:42:06;;;;;;;15.75;8.35;;;10.60;99.90;;;;;;5036733;28;20040;-84
2022/05/05 04:44:32;;;;;;;9.80;7.45;;;10.50;99.90;;;;;;5035902;28;20035;-85
2022/05/05 04:46:57;;;;;;;10.13;7.57;;;10.50;99.90;;;;;;5052499;28;20033;-85
2022/05/05 04:49:23;;;;;;;9.98;7.13;;;10.50;99.90;;;;;;5048203;28;20487;-85
2022/05/05 04:51:49;;;;;;;11.15;7.90;;;10.50;99.90;;;;;;5056297;28;20484;-85
2022/05/05 04:54:14;;;;;;;12.10;8.35;;;10.60;99.90;;;;;;5039438;28;20452;-85
2022/05/05 04:56:40;;;;;;;12.27;8.63;;;10.70;99.90;;;;;;5072162;28;20119;-85
2022/05/05 04:59:06;;;;;;;12.07;9.02;;;10.70;99.90;;;;;;5055490;28;20067;-85
2022/05/05 05:01:31;;;;;;;14.63;9.73;;;10.70;99.90;;;;;;5037461;28;20075;-84
2022/05/05 05:04:02;;;;;;;12.63;8.48;;;10.70;99.90;;;;;;5042234;28;20037;-85
2022/05/05 05:06:28;;;;;;;11.45;7.90;;;10.80;99.90;;;;;;5035580;28;20403;-85
2022/05/05 05:08:55;;;;;;;11.68;7.72;;;10.90;99.90;;;;;;5068195;28;20025;-84
2022/05/05 05:11:23;;;;;;;11.50;8.45;;;10.90;99.90;;;;;;5068950;28;20036;-87
2022/05/05 05:13:49;;;;;;;9.20;6.85;;;11.00;99.90;;;;;;5088225;28;20032;-85
2022/05/05 05:16:14;;;;;;;11.50;7.75;;;11.00;99.90;;;;;;5055407;28;20040;-85
2022/05/05 05:18:40;;;;;;;11.98;8.35;;;11.00;99.90;;;;;;5038505;28;20130;-86
2022/05/05 05:21:06;;;;;;;11.02;7.75;;;11.00;99.90;;;;;;5056143;28;20040;-85
2022/05/05 05:23:32;;;;;;;12.85;8.35;;;10.90;99.90;;;;;;5039129;28;20045;-85
2022/05/05 05:25:58;;;;;;;12.70;8.57;;;10.90;99.90;;;;;;5055272;28;20058;-85
2022/05/05 05:28:24;;;;;;;11.43;7.68;;;10.90;99.90;;;;;;5073049;28;20489;-85
2022/05/05 05:30:50;;;;;;;11.63;7.53;;;10.80;99.90;;;;;;5056190;28;20046;-86
2022/05/05 05:33:15;;;;;;;10.15;7.82;;;10.90;99.90;;;;;;5073272;28;20036;-85
2022/05/05 05:35:41;;;;;;;9.32;7.03;;;10.90;99.90;;;;;;5054991;28;20044;-85
2022/05/05 05:38:07;;;;;;;10.77;7.95;;;10.90;99.90;;;;;;5038829;28;20052;-85
2022/05/05 05:40:33;;;;;;;10.95;7.85;;;10.90;99.90;;;;;;5075027;28;20035;-85
2022/05/05 05:42:58;;;;;;;11.52;8.40;;;11.00;99.90;;;;;;5067907;28;20042;-85
2022/05/05 05:45:24;;;;;;;11.70;8.35;;;11.00;99.90;;;;;;5055776;28;20031;-86
2022/05/05 05:47:51;;;;;;;12.80;8.73;;;11.10;99.90;;;;;;5055565;28;20104;-88
2022/05/05 05:50:17;;;;;;;11.27;7.85;;;11.10;99.90;;;;;;5068373;28;20068;-85
2022/05/05 05:52:43;;;;;;;14.38;9.15;;;11.10;99.90;;;;;;5055997;28;20480;-85
2022/05/05 05:55:09;;;;;;;11.10;8.25;;;11.20;99.90;;;;;;5055851;28;20041;-85
2022/05/05 05:57:34;;;;;;;13.13;8.77;;;11.20;99.90;;;;;;5071680;28;20052;-85
2022/05/05 06:00:00;;;;;;;12.35;8.63;;;11.20;99.90;;;;;;5050108;28;20036;-85
2022/05/05 06:05:10;;;;;;;13.75;9.07;;;11.30;99.90;;;;;;5057866;28;20040;-86
2022/05/05 06:07:36;;;;;;;12.05;8.38;;;11.30;99.90;;;;;;5050812;28;20091;-85
2022/05/05 06:10:03;;;;;;;13.50;9.55;;;11.30;99.90;;;;;;5057197;28;20506;-86
2022/05/05 06:12:31;;;;;;;12.45;8.40;;;11.30;99.90;;;;;;5057988;28;20036;-87
2022/05/05 06:14:57;;;;;;;12.45;8.50;;;11.30;99.90;;;;;;5039224;28;20124;-86
2022/05/05 06:17:23;;;;;;;13.65;9.05;;;11.40;99.90;;;;;;5054319;28;20481;-89
2022/05/05 06:19:48;;;;;;;13.23;8.48;;;11.40;99.90;;;;;;5037635;28;20028;-86
2022/05/05 06:22:14;;;;;;;13.07;8.88;;;11.40;99.90;;;;;;5050748;28;20124;-85
2022/05/05 06:24:40;;;;;;;14.98;9.07;;;11.40;99.90;;;;;;5049433;28;20098;-86
2022/05/05 06:27:05;;;;;;;13.90;8.98;;;11.50;99.90;;;;;;5072372;28;20028;-87
2022/05/05 06:29:31;;;;;;;14.32;8.63;;;11.50;99.90;;;;;;5060534;28;20611;-85
2022/05/05 06:31:57;;;;;;;12.77;8.48;;;11.50;99.90;;;;;;5056788;28;20033;-85
2022/05/05 06:34:22;;;;;;;14.55;9.50;;;11.40;99.90;;;;;;5052596;28;20029;-86
2022/05/05 06:36:48;;;;;;;15.52;9.68;;;11.40;99.90;;;;;;5060386;28;20387;-86
2022/05/05 06:39:14;;;;;;;13.25;9.13;;;11.40;99.90;;;;;;5055175;28;20067;-87
2022/05/05 06:41:39;;;;;;;12.73;9.10;;;11.40;99.90;;;;;;5055680;28;20060;-85
2022/05/05 06:44:06;;;;;;;15.00;10.00;;;11.40;99.90;;;;;;5055979;28;20032;-85
2022/05/05 06:46:32;;;;;;;14.85;9.50;;;11.40;99.90;;;;;;5023680;28;20074;-88
2022/05/05 06:48:58;;;;;;;13.65;9.35;;;11.40;99.90;;;;;;5072975;28;20120;-85
2022/05/05 06:51:24;;;;;;;13.63;9.13;;;11.40;99.90;;;;;;5068490;28;20064;-85
2022/05/05 06:53:50;;;;;;;12.65;8.88;;;11.40;99.90;;;;;;5056850;28;20056;-85
2022/05/05 06:56:16;;;;;;;13.25;8.45;;;11.50;99.90;;;;;;5072876;28;20036;-86
2022/05/05 06:58:41;;;;;;;12.73;9.20;;;11.50;99.90;;;;;;5071566;28;20115;-85
2022/05/05 07:05:23;;;;;;;14.32;9.88;;;11.70;99.90;;;;;;5053998;28;20070;-85
2022/05/05 07:06:37;;;;;;;12.23;8.32;;;11.70;99.90;;;;;;5069699;28;20042;-86
2022/05/05 07:11:46;;;;;;;13.50;8.85;;;11.70;99.90;;;;;;5070759;28;20028;-85
2022/05/05 07:14:12;;;;;;;12.18;8.40;;;11.70;99.90;;;;;;5071326;28;20037;-85
2022/05/05 07:16:38;;;;;;;13.18;9.00;;;11.80;99.90;;;;;;5068140;28;20042;-86
2022/05/05 07:19:04;;;;;;;14.90;8.95;;;11.90;99.90;;;;;;5042248;28;20483;-86
2022/05/05 07:21:30;;;;;;;11.77;8.73;;;12.00;99.90;;;;;;5055683;28;20107;-86
2022/05/05 07:23:59;;;;;;;12.52;9.30;;;12.20;99.90;;;;;;5076147;28;20032;-86
2022/05/05 07:26:28;;;;;;;12.95;8.85;;;12.30;99.90;;;;;;5079111;28;20020;-86
2022/05/05 07:28:54;;;;;;;15.00;10.00;;;12.40;99.90;;;;;;5062859;28;20032;-87
2022/05/05 07:31:19;;;;;;;14.57;10.15;;;12.60;99.90;;;;;;5085932;28;20032;-86
2022/05/05 07:33:45;;;;;;;15.10;10.13;;;12.70;99.90;;;;;;5057732;28;20040;-85
2022/05/05 07:36:11;;;;;;;14.95;10.20;;;12.70;99.90;;;;;;5031469;28;20047;-86
2022/05/05 07:38:37;;;;;;;15.02;9.77;;;12.80;99.90;;;;;;5071181;28;20067;-86
2022/05/05 07:41:03;;;;;;;13.55;10.05;;;12.70;99.90;;;;;;5095168;28;20036;-84
2022/05/05 07:43:29;;;;;;;12.73;9.35;;;12.60;99.90;;;;;;5062000;28;20024;-84
2022/05/05 07:45:55;;;;;;;12.48;9.50;;;12.70;99.90;;;;;;5078377;28;20039;-83
2022/05/05 07:48:20;;;;;;;13.63;9.82;;;12.70;99.90;;;;;;5062342;28;20036;-84
2022/05/05 07:50:49;;;;;;;13.27;9.23;;;12.80;99.90;;;;;;5061313;28;20131;-85
2022/05/05 07:53:15;;;;;;;14.18;9.38;;;13.00;99.90;;;;;;5096398;28;20032;-85
2022/05/05 07:55:41;;;;;;;16.30;10.55;;;13.00;99.90;;;;;;5076676;28;20507;-84
2022/05/05 07:58:07;;;;;;;11.18;8.10;;;13.10;99.90;;;;;;5065582;28;20040;-84
2022/05/05 08:00:33;;;;;;;12.98;8.20;;;13.10;99.90;;;;;;5061999;28;20376;-86
2022/05/05 08:02:59;;;;;;;11.73;8.40;;;13.10;99.90;;;;;;5072938;28;20024;-85
2022/05/05 08:05:25;;;;;;;12.35;8.73;;;13.30;99.90;;;;;;5085756;28;20021;-85
2022/05/05 08:07:51;;;;;;;10.35;7.85;;;13.40;99.90;;;;;;5067279;28;20457;-85
2022/05/05 08:10:18;;;;;;;10.75;8.48;;;13.60;99.90;;;;;;5045665;28;20085;-85
2022/05/05 08:12:47;;;;;;;11.15;8.60;;;13.60;99.90;;;;;;5068868;28;20032;-86
2022/05/05 08:15:16;;;;;;;9.88;8.27;;;13.70;99.90;;;;;;5061009;28;20098;-85
2022/05/05 08:17:43;;;;;;;9.75;7.65;;;13.70;99.90;;;;;;5051648;28;20487;-85
2022/05/05 08:20:09;;;;;;;12.40;8.70;;;13.60;99.90;;;;;;5040637;28;20482;-85
2022/05/05 08:22:35;;;;;;;11.93;8.95;;;13.60;99.90;;;;;;5070125;28;20181;-84
2022/05/05 08:30:30;;;;;;;10.55;8.27;;;13.60;99.90;;;;;;5089115;28;20036;-85
2022/05/05 08:32:57;;;;;;;11.10;8.57;;;13.60;99.90;;;;;;5038650;28;20127;-85
2022/05/05 08:35:22;;;;;;;11.75;8.45;;;13.70;99.90;;;;;;5034568;28;20037;-85
2022/05/05 08:37:51;;;;;;;11.25;8.80;;;13.90;99.90;;;;;;5062303;28;20032;-84
2022/05/05 08:40:17;;;;;;;11.73;8.80;;;14.00;99.90;;;;;;5056264;28;20024;-85
2022/05/05 08:42:43;;;;;;;11.82;8.50;;;14.00;99.90;;;;;;5067734;28;20442;-85
2022/05/05 08:45:09;;;;;;;13.63;9.82;;;14.20;99.90;;;;;;5051524;28;20040;-85
2022/05/05 08:47:37;;;;;;;10.40;8.13;;;14.30;99.90;;;;;;5032664;28;20028;-84
2022/05/05 08:50:03;;;;;;;14.05;8.68;;;14.30;99.90;;;;;;5070478;28;20040;-84
2022/05/05 08:52:34;;;;;;;11.20;8.90;;;14.40;99.90;;;;;;5049440;28;20111;-85
2022/05/05 08:55:00;;;;;;;11.85;9.18;;;14.70;99.90;;;;;;5055133;28;20036;-85
2022/05/05 08:57:27;;;;;;;10.52;8.65;;;14.70;99.90;;;;;;5068078;28;20721;-84
2022/05/05 08:59:55;;;;;;;11.95;8.85;;;14.80;99.90;;;;;;5062622;28;20077;-84
2022/05/05 09:02:21;;;;;;;12.02;9.40;;;14.80;99.90;;;;;;5066578;28;20097;-85
2022/05/05 09:04:47;;;;;;;10.57;7.97;;;14.90;99.90;;;;;;5054441;28;20032;-85
2022/05/05 09:07:13;;;;;;;10.57;7.90;;;14.90;99.90;;;;;;5081725;28;20047;-85
2022/05/05 09:09:39;;;;;;;10.57;8.02;;;15.10;99.90;;;;;;5050006;28;20028;-85
2022/05/05 09:12:10;;;;;;;11.25;8.18;;;15.20;99.90;;;;;;5064962;28;20051;-85
2022/05/05 09:14:37;;;;;;;10.50;7.78;;;15.40;99.90;;;;;;5071287;28;20024;-85
2022/05/05 09:17:05;;;;;;;10.63;8.32;;;15.60;99.90;;;;;;5051301;28;20502;-84
2022/05/05 09:19:38;;;;;;;10.07;7.57;;;15.70;99.90;;;;;;5067781;28;20119;-85
2022/05/05 09:22:06;;;;;;;9.73;7.22;;;15.90;99.90;;;;;;5061735;28;20028;-85
2022/05/05 09:24:35;;;;;;;8.18;6.70;;;16.00;99.90;;;;;;5040263;28;20040;-85
2022/05/05 09:27:14;;;;;;;8.45;6.93;;;16.10;99.90;;;;;;5062791;28;20039;-85
2022/05/05 09:29:39;;;;;;;7.03;6.30;;;16.30;99.90;;;;;;5073785;28;20074;-84
2022/05/05 09:32:12;;;;;;;9.88;7.40;;;16.30;99.90;;;;;;5065667;28;20444;-85
2022/05/05 09:34:41;;;;;;;8.52;6.70;;;16.30;99.90;;;;;;5071468;28;20093;-84
2022/05/05 09:37:36;;;;;;;10.40;7.03;;;16.40;99.90;;;;;;5071076;28;20093;-85
2022/05/05 09:40:06;;;;;;;7.90;6.18;;;16.40;99.90;;;;;;5070210;28;20044;-84
2022/05/05 09:42:46;;;;;;;7.47;6.50;;;16.30;99.90;;;;;;5069795;28;20020;-85
2022/05/05 09:45:17;;;;;;;7.53;6.43;;;16.40;99.90;;;;;;5056414;28;20062;-86
2022/05/05 09:47:50;;;;;;;10.27;6.70;;;16.40;99.90;;;;;;5031612;28;20487;-85
2022/05/05 09:50:19;;;;;;;7.28;6.32;;;16.40;99.90;;;;;;5051522;28;20111;-86
2022/05/05 09:58:19;;;;;;;8.23;6.05;;;17.00;99.90;;;;;;5053300;28;20033;-86
2022/05/05 10:00:59;;;;;;;9.85;6.80;;;17.30;99.90;;;;;;5050342;28;20062;-85
2022/05/05 10:06:21;;;;;;;7.25;5.72;;;17.30;99.90;;;;;;5087851;28;20723;-85
2022/05/05 10:08:50;;;;;;;6.50;5.60;;;17.30;99.90;;;;;;5070730;28;20039;-85
2022/05/05 10:11:18;;;;;;;8.80;7.07;;;17.20;99.90;;;;;;5071679;28;20063;-85
2022/05/05 10:13:45;;;;;;;8.18;5.78;;;17.10;99.90;;;;;;5082654;28;20040;-88
2022/05/05 10:16:14;;;;;;;7.10;5.65;;;17.20;99.90;;;;;;5050824;28;20044;-86
2022/05/05 10:18:41;;;;;;;9.38;6.53;;;17.30;99.90;;;;;;5050272;28;20033;-87
2022/05/05 10:21:20;;;;;;;6.05;5.43;;;17.30;99.90;;;;;;5018206;28;20055;-83
2022/05/05 10:24:30;;;;;;;6.22;5.47;;;17.10;99.90;;;;;;5067650;28;20036;-83
2022/05/05 10:27:04;;;;;;;5.75;5.13;;;17.10;99.90;;;;;;5065919;28;20029;-82
2022/05/05 10:29:32;;;;;;;6.65;5.35;;;17.10;99.90;;;;;;5037881;28;20028;-87
2022/05/05 10:32:18;;;;;;;6.15;5.55;;;17.20;99.90;;;;;;5054053;28;20588;-85
2022/05/05 10:34:45;;;;;;;6.97;6.20;;;17.30;99.90;;;;;;5085861;28;20479;-85
2022/05/05 10:37:13;;;;;;;7.43;6.22;;;17.40;99.90;;;;;;5068178;28;20032;-85
2022/05/05 10:39:43;;;;;;;5.97;5.35;;;17.40;99.90;;;;;;5073672;28;20032;-85
2022/05/05 10:42:15;;;;;;;6.30;5.55;;;17.50;99.90;;;;;;5073754;28;20111;-86
2022/05/05 10:45:07;;;;;;;6.22;5.45;;;17.60;99.90;;;;;;5054121;28;20024;-85
2022/05/05 10:50:38;;;;;;;6.60;5.30;;;17.60;99.90;;;;;;5070709;28;20033;-83
2022/05/05 10:53:06;;;;;;;7.03;5.90;;;17.60;99.90;;;;;;5054085;28;20462;-85
2022/05/05 10:55:32;;;;;;;6.53;5.60;;;17.70;99.90;;;;;;5036731;28;20625;-85
2022/05/05 10:57:58;;;;;;;6.47;5.35;;;17.80;99.90;;;;;;5053453;28;20037;-85
2022/05/05 11:00:38;;;;;;;9.07;6.60;;;17.90;99.90;;;;;;5072101;28;20035;-86
2022/05/05 11:03:09;;;;;;;7.00;6.30;;;18.00;99.90;;;;;;5053351;28;20439;-85
2022/05/05 11:05:39;;;;;;;8.30;6.57;;;18.00;99.90;;;;;;5089812;28;20039;-85
2022/05/05 11:08:08;;;;;;;7.43;6.43;;;18.00;99.90;;;;;;5086995;28;20032;-85
2022/05/05 11:10:45;;;;;;;8.00;6.07;;;18.00;99.90;;;;;;5070299;28;20028;-85
2022/05/05 11:13:37;;;;;;;7.75;6.35;;;18.10;99.90;;;;;;5060270;28;20024;-85
2022/05/05 11:22:18;;;;;;;7.80;7.00;;;18.10;99.90;;;;;;5070365;28;20127;-86
2022/05/05 11:24:52;;;;;;;6.63;5.93;;;18.00;99.90;;;;;;5073418;28;20109;-85
2022/05/05 11:27:23;;;;;;;9.63;6.45;;;18.00;99.90;;;;;;5056631;28;20028;-87
2022/05/05 11:29:54;;;;;;;7.72;6.93;;;18.00;99.90;;;;;;5043661;28;20024;-84
2022/05/05 11:32:21;;;;;;;7.13;6.03;;;18.00;99.90;;;;;;5052994;28;20033;-83
2022/05/05 11:34:48;;;;;;;7.38;5.75;;;18.00;99.90;;;;;;5070129;28;20021;-85
2022/05/05 11:37:14;;;;;;;8.27;6.63;;;18.10;99.90;;;;;;5058503;28;20037;-86
2022/05/05 11:39:41;;;;;;;8.07;6.75;;;18.10;99.90;;;;;;5036434;28;20071;-85
2022/05/05 11:42:11;;;;;;;8.68;7.28;;;18.20;99.90;;;;;;5036861;28;20068;-86
2022/05/05 11:44:44;;;;;;;8.15;7.18;;;18.20;99.90;;;;;;5064104;28;20040;-85
2022/05/05 11:47:11;;;;;;;6.57;5.97;;;18.20;99.90;;;;;;5051386;28;20514;-84
2022/05/05 11:49:37;;;;;;;8.07;6.57;;;18.20;99.90;;;;;;5035816;28;20032;-82
2022/05/05 11:52:04;;;;;;;7.70;6.40;;;18.30;99.90;;;;;;5069960;28;20024;-85
2022/05/05 11:54:34;;;;;;;7.07;6.13;;;18.40;99.90;;;;;;5036535;28;20039;-88
2022/05/05 11:57:01;;;;;;;8.48;6.15;;;18.60;99.90;;;;;;5052300;28;20028;-86
2022/05/05 12:02:16;;;;;;;9.35;7.85;;;18.90;99.90;;;;;;5069219;28;20024;-85
2022/05/05 12:04:49;;;;;;;8.07;7.05;;;19.00;99.90;;;;;;5069449;28;20075;-85
2022/05/05 12:07:23;;;;;;;10.73;7.30;;;18.90;99.90;;;;;;5052135;28;20040;-84
2022/05/05 12:09:57;;;;;;;8.13;7.03;;;18.80;99.90;;;;;;5052567;28;20036;-86
2022/05/05 12:12:25;;;;;;;9.38;8.18;;;18.80;99.90;;;;;;5069096;28;20056;-85
2022/05/05 12:15:00;;;;;;;8.68;7.43;;;18.90;99.90;;;;;;5052489;28;20411;-84
2022/05/05 12:17:34;;;;;;;8.05;7.22;;;19.10;99.90;;;;;;5083493;28;20710;-85
2022/05/05 12:20:03;;;;;;;7.05;6.35;;;19.10;99.90;;;;;;5072105;28;20096;-85
2022/05/05 12:22:40;;;;;;;7.50;6.80;;;19.20;99.90;;;;;;5070401;28;20047;-85
2022/05/05 12:25:16;;;;;;;7.95;6.05;;;19.30;99.90;;;;;;5052066;28;20078;-85
2022/05/05 12:27:44;;;;;;;6.85;6.15;;;19.40;99.90;;;;;;5053569;28;20032;-86
2022/05/05 12:30:12;;;;;;;6.43;5.78;;;19.60;99.90;;;;;;5071839;28;20486;-86
2022/05/05 12:32:50;;;;;;;8.10;5.72;;;19.80;99.90;;;;;;5039676;28;20077;-85
2022/05/05 12:35:17;;;;;;;7.53;6.20;;;20.10;99.90;;;;;;5071896;28;20117;-86
2022/05/05 12:37:46;;;;;;;8.13;7.07;;;20.20;99.90;;;;;;5058189;28;20037;-85
2022/05/05 12:40:15;;;;;;;6.68;5.85;;;20.30;97.40;;;;;;5051785;28;20047;-86
2022/05/05 12:42:49;;;;;;;8.80;6.45;;;20.30;96.60;;;;;;5080054;28;20107;-85
2022/05/05 12:45:26;;;;;;;7.55;5.78;;;20.20;95.90;;;;;;5035233;28;20033;-87
2022/05/05 12:47:54;;;;;;;7.03;5.78;;;20.10;95.70;;;;;;5067868;28;20033;-85
2022/05/05 12:50:30;;;;;;;6.13;5.45;;;19.90;94.90;;;;;;5086576;28;20029;-85
2022/05/05 13:01:20;;;;;;;8.32;6.95;;;19.70;94.80;;;;;;5048469;28;20036;-85
2022/05/05 13:03:46;;;;;;;8.90;6.78;;;19.70;93.20;;;;;;5068894;28;20025;-85
2022/05/05 13:06:13;;;;;;;6.95;5.78;;;19.50;93.90;;;;;;5066738;28;20036;-84
2022/05/05 13:08:38;;;;;;;6.88;6.18;;;19.40;95.30;;;;;;5040192;28;20135;-84
2022/05/05 13:11:05;;;;;;;8.95;6.53;;;19.40;94.80;;;;;;5067693;28;20131;-84
2022/05/05 13:13:31;;;;;;;6.88;6.18;;;19.50;92.10;;;;;;5064205;28;20139;-84
2022/05/05 13:15:57;;;;;;;7.55;6.55;;;19.50;93.20;;;;;;5072013;28;20039;-85
2022/05/05 13:18:22;;;;;;;8.55;6.20;;;19.60;91.90;;;;;;5088425;28;20071;-84
2022/05/05 13:20:48;;;;;;;6.90;5.82;;;19.70;94.00;;;;;;5053637;28;20090;-85
2022/05/05 13:23:14;;;;;;;9.10;6.72;;;19.90;92.80;;;;;;5053014;28;20407;-84
2022/05/05 13:25:39;;;;;;;8.82;6.45;;;20.00;91.60;;;;;;5068261;28;20040;-84
2022/05/05 13:28:05;;;;;;;6.90;6.18;;;20.00;88.00;;;;;;5054365;28;20043;-85
2022/05/05 13:30:31;;;;;;;9.57;7.13;;;19.90;91.00;;;;;;5071415;28;20059;-85
2022/05/05 13:32:56;;;;;;;7.65;6.25;;;19.80;89.30;;;;;;5037369;28;20046;-85
2022/05/05 13:35:23;;;;;;;7.07;6.25;;;19.60;91.30;;;;;;5046435;28;20056;-85
2022/05/05 13:37:49;;;;;;;8.38;6.88;;;19.40;91.70;;;;;;5034346;28;20483;-85
2022/05/05 13:40:15;;;;;;;10.70;7.75;;;19.40;91.80;;;;;;5034655;28;20063;-84